sensor_id;sensor_type;location;lat;lon;timestamp;pressure;altitude;pressure_sealevel;temperature;humidity
66385;BME280;53426;55.872;37.462;2023-01-29T00:02:00;99404.28;;;-1.37;67.27
66385;BME280;53426;55.872;37.462;2023-01-29T00:04:28;99404.34;;;-1.38;66.92
66385;BME280;53426;55.872;37.462;2023-01-29T00:06:53;99407.78;;;-1.38;66.90
66385;BME280;53426;55.872;37.462;2023-01-29T00:09:20;99407.44;;;-1.29;66.64
66385;BME280;53426;55.872;37.462;2023-01-29T00:11:48;99415.84;;;-1.22;66.64
66385;BME280;53426;55.872;37.462;2023-01-29T00:14:14;99419.06;;;-1.15;66.03
66385;BME280;53426;55.872;37.462;2023-01-29T00:16:39;99409.56;;;-1.16;65.41
66385;BME280;53426;55.872;37.462;2023-01-29T00:19:06;99413.78;;;-1.14;65.50
66385;BME280;53426;55.872;37.462;2023-01-29T00:21:32;99395.66;;;-1.15;65.46
66385;BME280;53426;55.872;37.462;2023-01-29T00:24:00;99390.81;;;-1.24;64.53
66385;BME280;53426;55.872;37.462;2023-01-29T00:26:26;99374.72;;;-1.56;64.64
66385;BME280;53426;55.872;37.462;2023-01-29T00:28:52;99393.38;;;-1.46;64.92
66385;BME280;53426;55.872;37.462;2023-01-29T00:31:21;99397.50;;;-1.41;64.32
66385;BME280;53426;55.872;37.462;2023-01-29T00:33:48;99391.41;;;-1.40;64.43
66385;BME280;53426;55.872;37.462;2023-01-29T00:36:16;99390.94;;;-1.28;63.83
66385;BME280;53426;55.872;37.462;2023-01-29T00:38:44;99389.72;;;-1.19;64.25
66385;BME280;53426;55.872;37.462;2023-01-29T00:41:20;99366.47;;;-1.22;63.65
66385;BME280;53426;55.872;37.462;2023-01-29T00:44:05;99382.31;;;-1.06;63.85
66385;BME280;53426;55.872;37.462;2023-01-29T00:46:49;99366.53;;;-1.02;63.30
66385;BME280;53426;55.872;37.462;2023-01-29T00:49:15;99371.97;;;-0.86;63.28
66385;BME280;53426;55.872;37.462;2023-01-29T00:51:41;99365.75;;;-0.82;62.94
66385;BME280;53426;55.872;37.462;2023-01-29T00:54:07;99364.09;;;-0.85;62.67
66385;BME280;53426;55.872;37.462;2023-01-29T00:56:34;99368.69;;;-0.91;62.41
66385;BME280;53426;55.872;37.462;2023-01-29T00:59:01;99365.44;;;-0.96;63.28
66385;BME280;53426;55.872;37.462;2023-01-29T01:01:27;99359.72;;;-1.04;62.49
66385;BME280;53426;55.872;37.462;2023-01-29T01:04:11;99356.38;;;-1.08;62.99
66385;BME280;53426;55.872;37.462;2023-01-29T01:06:38;99359.97;;;-1.10;63.15
66385;BME280;53426;55.872;37.462;2023-01-29T01:09:06;99362.25;;;-1.03;62.82
66385;BME280;53426;55.872;37.462;2023-01-29T01:11:51;99358.69;;;-1.00;62.65
66385;BME280;53426;55.872;37.462;2023-01-29T01:14:18;99357.78;;;-0.99;63.12
66385;BME280;53426;55.872;37.462;2023-01-29T01:16:47;99368.09;;;-0.98;62.80
66385;BME280;53426;55.872;37.462;2023-01-29T01:19:14;99355.78;;;-1.14;62.63
66385;BME280;53426;55.872;37.462;2023-01-29T01:21:41;99366.06;;;-1.11;62.49
66385;BME280;53426;55.872;37.462;2023-01-29T01:24:11;99373.56;;;-1.25;63.21
66385;BME280;53426;55.872;37.462;2023-01-29T01:26:38;99371.63;;;-1.20;63.02
66385;BME280;53426;55.872;37.462;2023-01-29T01:29:06;99360.38;;;-1.43;63.52
66385;BME280;53426;55.872;37.462;2023-01-29T01:31:32;99365.34;;;-1.37;63.37
66385;BME280;53426;55.872;37.462;2023-01-29T01:33:58;99360.00;;;-1.34;63.54
66385;BME280;53426;55.872;37.462;2023-01-29T01:36:24;99376.22;;;-1.27;63.27
66385;BME280;53426;55.872;37.462;2023-01-29T01:38:50;99363.03;;;-1.22;63.17
66385;BME280;53426;55.872;37.462;2023-01-29T01:41:22;99347.31;;;-1.19;62.72
66385;BME280;53426;55.872;37.462;2023-01-29T01:43:55;99357.88;;;-1.24;63.06
66385;BME280;53426;55.872;37.462;2023-01-29T01:46:30;99349.13;;;-1.43;63.02
66385;BME280;53426;55.872;37.462;2023-01-29T01:49:01;99347.63;;;-1.49;63.51
66385;BME280;53426;55.872;37.462;2023-01-29T01:51:31;99336.56;;;-1.54;63.67
66385;BME280;53426;55.872;37.462;2023-01-29T01:54:04;99343.88;;;-1.42;63.67
66385;BME280;53426;55.872;37.462;2023-01-29T01:56:33;99336.34;;;-1.71;64.00
66385;BME280;53426;55.872;37.462;2023-01-29T01:59:06;99335.22;;;-1.64;64.08
66385;BME280;53426;55.872;37.462;2023-01-29T02:01:33;99335.94;;;-1.60;64.03
66385;BME280;53426;55.872;37.462;2023-01-29T02:04:05;99323.25;;;-1.68;64.32
66385;BME280;53426;55.872;37.462;2023-01-29T02:06:51;99311.97;;;-1.67;63.73
66385;BME280;53426;55.872;37.462;2023-01-29T02:09:41;99328.97;;;-1.58;64.05
66385;BME280;53426;55.872;37.462;2023-01-29T02:12:13;99310.06;;;-1.85;63.70
66385;BME280;53426;55.872;37.462;2023-01-29T02:14:41;99318.19;;;-1.71;64.40
66385;BME280;53426;55.872;37.462;2023-01-29T02:17:28;99318.06;;;-1.68;63.88
66385;BME280;53426;55.872;37.462;2023-01-29T02:39:00;99275.63;;;-1.23;62.20
66385;BME280;53426;55.872;37.462;2023-01-29T02:41:37;99280.88;;;-1.25;62.15
66385;BME280;53426;55.872;37.462;2023-01-29T02:47:00;99261.19;;;-1.31;62.56
66385;BME280;53426;55.872;37.462;2023-01-29T02:50:00;99249.44;;;-1.39;63.33
66385;BME280;53426;55.872;37.462;2023-01-29T02:57:51;99250.28;;;-1.39;63.56
66385;BME280;53426;55.872;37.462;2023-01-29T03:00:25;99239.88;;;-1.39;63.55
66385;BME280;53426;55.872;37.462;2023-01-29T03:03:02;99237.81;;;-1.31;63.45
66385;BME280;53426;55.872;37.462;2023-01-29T03:05:58;99235.75;;;-1.22;62.98
66385;BME280;53426;55.872;37.462;2023-01-29T03:08:40;99244.41;;;-1.22;62.58
66385;BME280;53426;55.872;37.462;2023-01-29T03:11:10;99246.00;;;-1.19;62.83
66385;BME280;53426;55.872;37.462;2023-01-29T03:14:21;99207.75;;;-1.36;63.05
66385;BME280;53426;55.872;37.462;2023-01-29T03:16:50;99214.53;;;-1.32;63.11
66385;BME280;53426;55.872;37.462;2023-01-29T03:19:45;99226.06;;;-1.39;63.41
66385;BME280;53426;55.872;37.462;2023-01-29T03:22:20;99212.06;;;-1.57;64.17
66385;BME280;53426;55.872;37.462;2023-01-29T03:24:54;99203.50;;;-1.59;64.35
66385;BME280;53426;55.872;37.462;2023-01-29T03:27:52;99205.25;;;-1.59;64.30
66385;BME280;53426;55.872;37.462;2023-01-29T03:30:56;99199.75;;;-1.74;64.70
66385;BME280;53426;55.872;37.462;2023-01-29T03:34:08;99194.09;;;-1.83;64.80
66385;BME280;53426;55.872;37.462;2023-01-29T03:36:48;99194.31;;;-1.89;65.36
66385;BME280;53426;55.872;37.462;2023-01-29T03:39:23;99187.38;;;-1.89;65.18
66385;BME280;53426;55.872;37.462;2023-01-29T03:42:26;99179.50;;;-1.86;65.10
66385;BME280;53426;55.872;37.462;2023-01-29T03:45:12;99179.66;;;-1.90;65.39
66385;BME280;53426;55.872;37.462;2023-01-29T03:53:27;99167.72;;;-1.94;65.85
66385;BME280;53426;55.872;37.462;2023-01-29T03:56:38;99170.06;;;-1.88;65.45
66385;BME280;53426;55.872;37.462;2023-01-29T03:59:56;99165.72;;;-1.88;65.68
66385;BME280;53426;55.872;37.462;2023-01-29T04:06:10;99144.97;;;-1.88;65.25
66385;BME280;53426;55.872;37.462;2023-01-29T04:09:18;99148.38;;;-1.86;65.47
66385;BME280;53426;55.872;37.462;2023-01-29T04:11:52;99149.88;;;-1.80;65.16
66385;BME280;53426;55.872;37.462;2023-01-29T04:14:19;99151.47;;;-1.78;65.35
66385;BME280;53426;55.872;37.462;2023-01-29T04:16:51;99140.38;;;-1.81;65.27
66385;BME280;53426;55.872;37.462;2023-01-29T04:19:30;99147.00;;;-1.74;65.42
66385;BME280;53426;55.872;37.462;2023-01-29T04:22:11;99148.78;;;-1.75;65.71
66385;BME280;53426;55.872;37.462;2023-01-29T04:24:39;99139.41;;;-1.79;65.51
66385;BME280;53426;55.872;37.462;2023-01-29T04:27:17;99135.66;;;-1.72;65.50
66385;BME280;53426;55.872;37.462;2023-01-29T04:41:39;99131.72;;;-1.60;65.39
66385;BME280;53426;55.872;37.462;2023-01-29T04:44:25;99122.69;;;-1.72;65.23
66385;BME280;53426;55.872;37.462;2023-01-29T04:47:21;99134.31;;;-1.60;65.29
66385;BME280;53426;55.872;37.462;2023-01-29T04:49:59;99139.81;;;-1.47;64.96
66385;BME280;53426;55.872;37.462;2023-01-29T04:52:34;99131.72;;;-1.60;65.05
66385;BME280;53426;55.872;37.462;2023-01-29T04:55:51;99114.91;;;-1.51;64.42
66385;BME280;53426;55.872;37.462;2023-01-29T04:58:05;99120.31;;;-1.56;64.47
66385;BME280;53426;55.872;37.462;2023-01-29T05:00:45;99130.03;;;-1.61;64.74
66385;BME280;53426;55.872;37.462;2023-01-29T05:03:14;99138.28;;;-1.51;64.86
66385;BME280;53426;55.872;37.462;2023-01-29T05:05:44;99129.53;;;-1.49;64.65
66385;BME280;53426;55.872;37.462;2023-01-29T05:08:12;99119.69;;;-1.62;64.57
66385;BME280;53426;55.872;37.462;2023-01-29T05:10:40;99114.66;;;-1.45;64.30
66385;BME280;53426;55.872;37.462;2023-01-29T05:13:12;99119.78;;;-1.44;64.14
66385;BME280;53426;55.872;37.462;2023-01-29T05:15:43;99108.22;;;-1.57;64.12
66385;BME280;53426;55.872;37.462;2023-01-29T05:18:09;99121.75;;;-1.49;64.45
66385;BME280;53426;55.872;37.462;2023-01-29T05:20:38;99128.94;;;-1.55;64.42
66385;BME280;53426;55.872;37.462;2023-01-29T05:23:21;99126.84;;;-1.47;64.40
66385;BME280;53426;55.872;37.462;2023-01-29T05:25:48;99120.50;;;-1.60;64.44
66385;BME280;53426;55.872;37.462;2023-01-29T05:28:15;99123.94;;;-1.60;64.39
66385;BME280;53426;55.872;37.462;2023-01-29T05:30:46;99115.50;;;-1.65;64.55
66385;BME280;53426;55.872;37.462;2023-01-29T05:35:42;99108.56;;;-1.64;64.47
66385;BME280;53426;55.872;37.462;2023-01-29T05:38:09;99112.31;;;-1.72;64.31
66385;BME280;53426;55.872;37.462;2023-01-29T05:40:38;99114.50;;;-1.62;64.60
66385;BME280;53426;55.872;37.462;2023-01-29T05:43:10;99114.41;;;-1.59;64.19
66385;BME280;53426;55.872;37.462;2023-01-29T05:45:38;99119.91;;;-1.67;64.19
66385;BME280;53426;55.872;37.462;2023-01-29T05:48:04;99117.31;;;-1.67;64.46
66385;BME280;53426;55.872;37.462;2023-01-29T05:50:31;99117.69;;;-1.56;64.32
66385;BME280;53426;55.872;37.462;2023-01-29T05:52:58;99127.19;;;-1.55;64.18
66385;BME280;53426;55.872;37.462;2023-01-29T05:55:24;99117.31;;;-1.67;64.12
66385;BME280;53426;55.872;37.462;2023-01-29T05:57:50;99114.59;;;-1.64;64.17
66385;BME280;53426;55.872;37.462;2023-01-29T06:00:16;99123.09;;;-1.60;64.13
66385;BME280;53426;55.872;37.462;2023-01-29T06:02:42;99117.84;;;-1.59;63.86
66385;BME280;53426;55.872;37.462;2023-01-29T06:05:08;99118.25;;;-1.48;63.91
66385;BME280;53426;55.872;37.462;2023-01-29T06:07:34;99116.03;;;-1.37;64.12
66385;BME280;53426;55.872;37.462;2023-01-29T06:10:01;99102.75;;;-1.31;63.46
66385;BME280;53426;55.872;37.462;2023-01-29T06:12:27;99085.91;;;-1.61;63.90
66385;BME280;53426;55.872;37.462;2023-01-29T06:14:53;99103.88;;;-1.56;64.04
66385;BME280;53426;55.872;37.462;2023-01-29T06:17:19;99107.13;;;-1.51;63.99
66385;BME280;53426;55.872;37.462;2023-01-29T06:19:45;99095.97;;;-1.53;63.84
66385;BME280;53426;55.872;37.462;2023-01-29T06:22:11;99091.19;;;-1.42;63.57
66385;BME280;53426;55.872;37.462;2023-01-29T06:24:37;99089.03;;;-1.53;63.93
66385;BME280;53426;55.872;37.462;2023-01-29T06:27:05;99081.91;;;-1.48;63.92
66385;BME280;53426;55.872;37.462;2023-01-29T06:29:31;99093.44;;;-1.55;63.89
66385;BME280;53426;55.872;37.462;2023-01-29T06:31:57;99094.59;;;-1.62;64.47
66385;BME280;53426;55.872;37.462;2023-01-29T06:34:22;99092.41;;;-1.71;65.42
66385;BME280;53426;55.872;37.462;2023-01-29T06:36:48;99093.53;;;-1.78;65.21
66385;BME280;53426;55.872;37.462;2023-01-29T06:39:14;99079.31;;;-1.90;66.06
66385;BME280;53426;55.872;37.462;2023-01-29T06:41:43;99083.75;;;-1.92;66.05
66385;BME280;53426;55.872;37.462;2023-01-29T06:44:12;99071.97;;;-2.00;66.70
66385;BME280;53426;55.872;37.462;2023-01-29T06:46:39;99074.31;;;-1.94;66.14
66385;BME280;53426;55.872;37.462;2023-01-29T06:49:04;99072.22;;;-2.06;66.40
66385;BME280;53426;55.872;37.462;2023-01-29T06:51:30;99065.88;;;-1.99;66.39
66385;BME280;53426;55.872;37.462;2023-01-29T06:53:56;99036.34;;;-2.17;66.11
66385;BME280;53426;55.872;37.462;2023-01-29T06:56:23;99053.16;;;-2.05;66.30
66385;BME280;53426;55.872;37.462;2023-01-29T06:58:49;99051.38;;;-2.03;65.93
66385;BME280;53426;55.872;37.462;2023-01-29T07:01:15;99037.59;;;-2.05;65.77
66385;BME280;53426;55.872;37.462;2023-01-29T07:03:40;99048.91;;;-1.86;65.85
66385;BME280;53426;55.872;37.462;2023-01-29T07:06:07;99031.13;;;-1.95;65.18
66385;BME280;53426;55.872;37.462;2023-01-29T07:08:39;99047.56;;;-1.75;64.73
66385;BME280;53426;55.872;37.462;2023-01-29T07:11:08;99039.19;;;-1.81;65.24
66385;BME280;53426;55.872;37.462;2023-01-29T07:13:34;99043.34;;;-1.77;64.79
66385;BME280;53426;55.872;37.462;2023-01-29T07:16:01;99046.31;;;-1.66;64.52
66385;BME280;53426;55.872;37.462;2023-01-29T07:18:28;99042.63;;;-1.60;64.38
66385;BME280;53426;55.872;37.462;2023-01-29T07:20:54;99038.88;;;-1.53;63.84
66385;BME280;53426;55.872;37.462;2023-01-29T07:23:20;99038.66;;;-1.49;63.56
66385;BME280;53426;55.872;37.462;2023-01-29T07:25:49;99029.50;;;-1.37;63.57
66385;BME280;53426;55.872;37.462;2023-01-29T07:28:19;99034.75;;;-1.39;63.90
66385;BME280;53426;55.872;37.462;2023-01-29T07:30:47;99036.72;;;-1.44;62.97
66385;BME280;53426;55.872;37.462;2023-01-29T07:33:13;99039.09;;;-1.39;62.76
66385;BME280;53426;55.872;37.462;2023-01-29T07:35:41;99036.44;;;-1.38;62.54
66385;BME280;53426;55.872;37.462;2023-01-29T07:38:10;99030.97;;;-1.32;62.15
66385;BME280;53426;55.872;37.462;2023-01-29T07:40:36;99028.75;;;-1.20;61.66
66385;BME280;53426;55.872;37.462;2023-01-29T07:43:05;99029.66;;;-1.21;61.71
66385;BME280;53426;55.872;37.462;2023-01-29T07:45:36;99023.25;;;-1.14;61.42
66385;BME280;53426;55.872;37.462;2023-01-29T07:48:04;99020.75;;;-1.16;61.41
66385;BME280;53426;55.872;37.462;2023-01-29T07:50:32;99024.13;;;-0.95;61.10
66385;BME280;53426;55.872;37.462;2023-01-29T07:53:00;99016.19;;;-0.92;60.52
66385;BME280;53426;55.872;37.462;2023-01-29T07:56:01;99014.66;;;-0.77;59.82
66385;BME280;53426;55.872;37.462;2023-01-29T07:58:26;99018.38;;;-0.83;59.52
66385;BME280;53426;55.872;37.462;2023-01-29T08:00:52;99015.69;;;-0.81;59.21
66385;BME280;53426;55.872;37.462;2023-01-29T08:03:18;99008.53;;;-0.76;59.15
66385;BME280;53426;55.872;37.462;2023-01-29T08:05:47;98999.13;;;-0.98;58.86
66385;BME280;53426;55.872;37.462;2023-01-29T08:08:14;98996.59;;;-0.99;58.98
66385;BME280;53426;55.872;37.462;2023-01-29T08:10:41;98998.72;;;-0.89;58.87
66385;BME280;53426;55.872;37.462;2023-01-29T08:13:07;99000.03;;;-0.80;58.93
66385;BME280;53426;55.872;37.462;2023-01-29T08:15:33;99000.31;;;-0.86;58.69
66385;BME280;53426;55.872;37.462;2023-01-29T08:18:00;98993.53;;;-0.89;58.94
66385;BME280;53426;55.872;37.462;2023-01-29T08:20:27;99005.03;;;-0.94;59.00
66385;BME280;53426;55.872;37.462;2023-01-29T08:23:06;98998.56;;;-0.86;59.18
66385;BME280;53426;55.872;37.462;2023-01-29T08:25:34;99003.69;;;-0.84;59.44
66385;BME280;53426;55.872;37.462;2023-01-29T08:28:00;99010.84;;;-0.70;58.72
66385;BME280;53426;55.872;37.462;2023-01-29T08:30:29;99001.28;;;-0.70;58.64
66385;BME280;53426;55.872;37.462;2023-01-29T08:32:55;98989.41;;;-0.57;59.16
66385;BME280;53426;55.872;37.462;2023-01-29T08:35:21;98996.81;;;-0.49;59.28
66385;BME280;53426;55.872;37.462;2023-01-29T08:38:16;98991.25;;;-0.42;58.56
66385;BME280;53426;55.872;37.462;2023-01-29T08:40:42;99001.44;;;-0.37;58.17
66385;BME280;53426;55.872;37.462;2023-01-29T08:43:09;99002.56;;;-0.43;58.01
66385;BME280;53426;55.872;37.462;2023-01-29T08:45:39;99003.00;;;-0.33;57.97
66385;BME280;53426;55.872;37.462;2023-01-29T08:48:06;99002.50;;;-0.41;57.68
66385;BME280;53426;55.872;37.462;2023-01-29T08:50:35;99004.59;;;-0.30;57.79
66385;BME280;53426;55.872;37.462;2023-01-29T08:53:05;98999.38;;;-0.30;57.68
66385;BME280;53426;55.872;37.462;2023-01-29T08:55:40;99003.56;;;-0.45;57.97
66385;BME280;53426;55.872;37.462;2023-01-29T08:58:09;99005.16;;;-0.43;58.09
66385;BME280;53426;55.872;37.462;2023-01-29T09:00:36;98980.06;;;-0.61;58.12
66385;BME280;53426;55.872;37.462;2023-01-29T09:03:02;98982.97;;;-0.67;58.54
66385;BME280;53426;55.872;37.462;2023-01-29T09:05:31;98992.00;;;-0.57;59.03
66385;BME280;53426;55.872;37.462;2023-01-29T09:07:58;98994.72;;;-0.60;58.95
66385;BME280;53426;55.872;37.462;2023-01-29T09:10:24;98984.19;;;-0.57;58.64
66385;BME280;53426;55.872;37.462;2023-01-29T09:12:50;98977.38;;;-0.59;58.77
66385;BME280;53426;55.872;37.462;2023-01-29T09:15:18;98976.94;;;-0.50;58.76
66385;BME280;53426;55.872;37.462;2023-01-29T09:17:45;98984.31;;;-0.41;58.66
66385;BME280;53426;55.872;37.462;2023-01-29T09:20:11;98971.25;;;-0.58;59.11
66385;BME280;53426;55.872;37.462;2023-01-29T09:22:37;98982.69;;;-0.44;58.71
66385;BME280;53426;55.872;37.462;2023-01-29T09:25:03;98975.59;;;-0.40;58.29
66385;BME280;53426;55.872;37.462;2023-01-29T09:27:29;98956.66;;;-0.44;59.08
66385;BME280;53426;55.872;37.462;2023-01-29T09:29:55;98949.28;;;-0.34;59.30
66385;BME280;53426;55.872;37.462;2023-01-29T09:32:21;98962.06;;;-0.12;58.91
66385;BME280;53426;55.872;37.462;2023-01-29T09:34:47;98956.75;;;-0.11;58.54
66385;BME280;53426;55.872;37.462;2023-01-29T09:37:13;98954.16;;;-0.11;57.88
66385;BME280;53426;55.872;37.462;2023-01-29T09:39:44;98964.88;;;0.00;57.91
66385;BME280;53426;55.872;37.462;2023-01-29T09:44:58;98960.22;;;-0.10;58.40
66385;BME280;53426;55.872;37.462;2023-01-29T09:47:28;98925.34;;;-0.23;58.32
66385;BME280;53426;55.872;37.462;2023-01-29T09:50:07;98931.63;;;-0.27;58.20
66385;BME280;53426;55.872;37.462;2023-01-29T09:55:25;98938.03;;;0.00;57.85
66385;BME280;53426;55.872;37.462;2023-01-29T09:57:55;98941.69;;;-0.21;58.44
66385;BME280;53426;55.872;37.462;2023-01-29T10:04:21;98923.56;;;-0.06;58.43
66385;BME280;53426;55.872;37.462;2023-01-29T10:25:15;98863.28;;;0.19;57.63
66385;BME280;53426;55.872;37.462;2023-01-29T10:27:50;98849.88;;;-0.06;58.10
66385;BME280;53426;55.872;37.462;2023-01-29T10:32:47;98838.59;;;0.11;57.81
66385;BME280;53426;55.872;37.462;2023-01-29T10:35:47;98831.31;;;0.49;57.44
66385;BME280;53426;55.872;37.462;2023-01-29T10:51:53;98836.09;;;0.56;57.13
66385;BME280;53426;55.872;37.462;2023-01-29T10:54:52;98828.13;;;0.44;57.41
66385;BME280;53426;55.872;37.462;2023-01-29T11:00:34;98819.13;;;0.65;57.03
66385;BME280;53426;55.872;37.462;2023-01-29T11:03:18;98805.69;;;0.57;57.04
66385;BME280;53426;55.872;37.462;2023-01-29T11:11:30;98749.47;;;0.53;56.78
66385;BME280;53426;55.872;37.462;2023-01-29T11:14:00;98798.53;;;0.60;56.84
66385;BME280;53426;55.872;37.462;2023-01-29T11:16:43;98815.78;;;0.63;57.11
66385;BME280;53426;55.872;37.462;2023-01-29T11:19:10;98802.50;;;0.52;57.04
66385;BME280;53426;55.872;37.462;2023-01-29T11:22:15;98801.81;;;0.64;57.20
66385;BME280;53426;55.872;37.462;2023-01-29T11:24:42;98810.38;;;0.66;57.05
66385;BME280;53426;55.872;37.462;2023-01-29T11:27:22;98809.13;;;0.41;57.19
66385;BME280;53426;55.872;37.462;2023-01-29T11:29:51;98801.31;;;0.26;57.37
66385;BME280;53426;55.872;37.462;2023-01-29T11:37:34;98778.72;;;0.11;57.87
66385;BME280;53426;55.872;37.462;2023-01-29T11:40:34;98791.47;;;0.15;58.26
66385;BME280;53426;55.872;37.462;2023-01-29T11:43:27;98780.03;;;0.02;58.36
66385;BME280;53426;55.872;37.462;2023-01-29T11:46:01;98781.28;;;-0.05;59.62
66385;BME280;53426;55.872;37.462;2023-01-29T11:48:42;98782.75;;;0.16;58.93
66385;BME280;53426;55.872;37.462;2023-01-29T11:51:24;98779.66;;;0.25;58.53
66385;BME280;53426;55.872;37.462;2023-01-29T11:53:54;98761.56;;;0.22;58.64
66385;BME280;53426;55.872;37.462;2023-01-29T11:56:22;98780.56;;;0.24;58.61
66385;BME280;53426;55.872;37.462;2023-01-29T11:58:55;98740.84;;;0.05;58.30
66385;BME280;53426;55.872;37.462;2023-01-29T12:01:32;98766.38;;;0.14;59.09
66385;BME280;53426;55.872;37.462;2023-01-29T12:04:00;98756.94;;;-0.04;58.43
66385;BME280;53426;55.872;37.462;2023-01-29T12:06:35;98767.94;;;0.01;59.10
66385;BME280;53426;55.872;37.462;2023-01-29T12:09:09;98764.00;;;-0.06;59.45
66385;BME280;53426;55.872;37.462;2023-01-29T12:11:41;98762.06;;;-0.03;59.44
66385;BME280;53426;55.872;37.462;2023-01-29T12:14:39;98767.88;;;0.18;60.62
66385;BME280;53426;55.872;37.462;2023-01-29T12:17:11;98759.06;;;0.05;60.16
66385;BME280;53426;55.872;37.462;2023-01-29T12:19:45;98769.31;;;0.08;60.49
66385;BME280;53426;55.872;37.462;2023-01-29T12:27:55;98775.28;;;0.10;59.78
66385;BME280;53426;55.872;37.462;2023-01-29T12:33:12;98779.03;;;0.05;60.09
66385;BME280;53426;55.872;37.462;2023-01-29T12:38:50;98735.84;;;-0.31;60.94
66385;BME280;53426;55.872;37.462;2023-01-29T12:42:04;98746.75;;;-0.24;60.95
66385;BME280;53426;55.872;37.462;2023-01-29T12:45:02;98774.56;;;-0.09;61.06
66385;BME280;53426;55.872;37.462;2023-01-29T12:47:51;98746.72;;;-0.40;61.68
66385;BME280;53426;55.872;37.462;2023-01-29T12:53:06;98770.81;;;-0.36;62.17
66385;BME280;53426;55.872;37.462;2023-01-29T12:55:47;98781.25;;;-0.21;62.01
66385;BME280;53426;55.872;37.462;2023-01-29T13:02:42;98761.72;;;-0.12;61.89
66385;BME280;53426;55.872;37.462;2023-01-29T13:05:25;98761.72;;;-0.12;61.64
66385;BME280;53426;55.872;37.462;2023-01-29T13:08:55;98734.25;;;-0.33;61.55
66385;BME280;53426;55.872;37.462;2023-01-29T13:10:58;98704.53;;;-0.45;61.87
66385;BME280;53426;55.872;37.462;2023-01-29T13:16:11;98754.50;;;-0.23;62.14
66385;BME280;53426;55.872;37.462;2023-01-29T13:18:52;98744.22;;;-0.26;62.10
66385;BME280;53426;55.872;37.462;2023-01-29T13:21:25;98704.78;;;-0.50;62.56
66385;BME280;53426;55.872;37.462;2023-01-29T13:24:01;98694.03;;;-0.44;62.46
66385;BME280;53426;55.872;37.462;2023-01-29T13:26:27;98732.25;;;-0.28;61.69
66385;BME280;53426;55.872;37.462;2023-01-29T13:28:54;98735.69;;;-0.28;61.70
66385;BME280;53426;55.872;37.462;2023-01-29T13:31:28;98723.41;;;-0.42;62.02
66385;BME280;53426;55.872;37.462;2023-01-29T13:36:47;98725.41;;;-0.47;62.46
66385;BME280;53426;55.872;37.462;2023-01-29T13:45:42;98728.81;;;-0.29;62.68
66385;BME280;53426;55.872;37.462;2023-01-29T13:48:17;98720.72;;;-0.40;62.63
66385;BME280;53426;55.872;37.462;2023-01-29T13:50:49;98690.66;;;-0.61;62.93
66385;BME280;53426;55.872;37.462;2023-01-29T13:53:28;98722.63;;;-0.44;62.82
66385;BME280;53426;55.872;37.462;2023-01-29T13:56:27;98725.31;;;-0.45;63.02
66385;BME280;53426;55.872;37.462;2023-01-29T13:59:21;98718.50;;;-0.48;63.42
66385;BME280;53426;55.872;37.462;2023-01-29T14:04:25;98709.03;;;-0.49;63.45
66385;BME280;53426;55.872;37.462;2023-01-29T14:10:13;98699.56;;;-0.50;63.42
66385;BME280;53426;55.872;37.462;2023-01-29T14:12:49;98693.66;;;-0.53;63.24
66385;BME280;53426;55.872;37.462;2023-01-29T14:15:18;98712.91;;;-0.40;63.16
66385;BME280;53426;55.872;37.462;2023-01-29T14:20:28;98704.53;;;-0.45;63.13
66385;BME280;53426;55.872;37.462;2023-01-29T14:22:58;98697.13;;;-0.53;63.60
66385;BME280;53426;55.872;37.462;2023-01-29T14:25:30;98700.63;;;-0.54;63.84
66385;BME280;53426;55.872;37.462;2023-01-29T14:28:20;98695.53;;;-0.55;63.75
66385;BME280;53426;55.872;37.462;2023-01-29T14:30:47;98697.97;;;-0.52;63.56
66385;BME280;53426;55.872;37.462;2023-01-29T14:33:37;98714.09;;;-0.46;63.56
66385;BME280;53426;55.872;37.462;2023-01-29T14:36:16;98696.78;;;-0.47;63.80
66385;BME280;53426;55.872;37.462;2023-01-29T14:38:49;98704.59;;;-0.47;63.52
66385;BME280;53426;55.872;37.462;2023-01-29T14:41:28;98699.22;;;-0.44;64.04
66385;BME280;53426;55.872;37.462;2023-01-29T14:47:03;98684.78;;;-0.49;64.94
66385;BME280;53426;55.872;37.462;2023-01-29T14:49:49;98688.75;;;-0.42;65.43
66385;BME280;53426;55.872;37.462;2023-01-29T14:52:16;98696.72;;;-0.45;65.60
66385;BME280;53426;55.872;37.462;2023-01-29T14:54:45;98657.56;;;-0.75;66.32
66385;BME280;53426;55.872;37.462;2023-01-29T14:57:14;98660.19;;;-0.92;66.99
66385;BME280;53426;55.872;37.462;2023-01-29T14:59:54;98693.22;;;-0.77;67.14
66385;BME280;53426;55.872;37.462;2023-01-29T15:02:25;98688.28;;;-0.66;67.93
66385;BME280;53426;55.872;37.462;2023-01-29T15:04:59;98680.50;;;-0.66;68.29
66385;BME280;53426;55.872;37.462;2023-01-29T15:07:31;98688.13;;;-0.63;67.87
66385;BME280;53426;55.872;37.462;2023-01-29T15:12:48;98699.00;;;-0.72;68.39
66385;BME280;53426;55.872;37.462;2023-01-29T15:15:39;98692.44;;;-0.79;68.94
66385;BME280;53426;55.872;37.462;2023-01-29T15:18:18;98706.94;;;-0.75;69.79
66385;BME280;53426;55.872;37.462;2023-01-29T15:21:01;98697.16;;;-0.70;69.86
66385;BME280;53426;55.872;37.462;2023-01-29T15:23:30;98701.44;;;-0.69;70.21
66385;BME280;53426;55.872;37.462;2023-01-29T15:26:07;98707.09;;;-0.61;70.33
66385;BME280;53426;55.872;37.462;2023-01-29T15:28:37;98704.88;;;-0.68;70.26
66385;BME280;53426;55.872;37.462;2023-01-29T15:31:12;98707.47;;;-0.68;70.02
66385;BME280;53426;55.872;37.462;2023-01-29T15:33:44;98713.53;;;-0.68;71.04
66385;BME280;53426;55.872;37.462;2023-01-29T15:36:22;98693.81;;;-0.72;70.66
66385;BME280;53426;55.872;37.462;2023-01-29T15:38:48;98697.31;;;-0.73;71.00
66385;BME280;53426;55.872;37.462;2023-01-29T15:41:19;98694.25;;;-0.64;71.45
66385;BME280;53426;55.872;37.462;2023-01-29T15:43:55;98693.03;;;-0.74;70.71
66385;BME280;53426;55.872;37.462;2023-01-29T15:46:51;98688.63;;;-0.72;70.87
66385;BME280;53426;55.872;37.462;2023-01-29T15:49:30;98685.16;;;-0.72;70.89
66385;BME280;53426;55.872;37.462;2023-01-29T15:51:59;98682.72;;;-0.75;70.95
66385;BME280;53426;55.872;37.462;2023-01-29T15:54:29;98657.53;;;-0.91;71.35
66385;BME280;53426;55.872;37.462;2023-01-29T15:56:57;98679.50;;;-0.80;71.83